createdAt,value
2022-12-08T00:01:24.812Z,100313.50
2022-12-08T00:03:52.419Z,100317.28
2022-12-08T00:06:42.595Z,100315.56
2022-12-08T00:09:38.768Z,100314.19
2022-12-08T00:12:12.338Z,100306.44
2022-12-08T00:14:44.011Z,100309.88
2022-12-08T00:17:13.632Z,100306.19
2022-12-08T00:19:40.929Z,100307.84
2022-12-08T00:22:08.810Z,100309.53
2022-12-08T00:24:40.672Z,100308.72
2022-12-08T00:27:13.230Z,100310.53
2022-12-08T00:29:40.410Z,100313.13
2022-12-08T00:32:07.430Z,100314.03
2022-12-08T00:34:34.525Z,100316.63
2022-12-08T00:37:01.559Z,100310.69
2022-12-08T00:39:28.542Z,100319.56
2022-12-08T00:42:13.596Z,100312.59
2022-12-08T00:44:42.526Z,100320.91
2022-12-08T00:47:09.809Z,100320.91
2022-12-08T00:49:37.977Z,100329.66
2022-12-08T00:52:04.836Z,100329.66
2022-12-08T00:54:31.958Z,100339.94
2022-12-08T00:56:58.724Z,100325.25
2022-12-08T00:59:25.740Z,100325.41
2022-12-08T01:01:52.508Z,100320.97
2022-12-08T01:04:20.379Z,100321.81
2022-12-08T01:06:48.089Z,100320.25
2022-12-08T01:09:16.844Z,100321.16
2022-12-08T01:11:44.706Z,100332.13
2022-12-08T01:14:12.912Z,100328.88
2022-12-08T01:16:41.532Z,100325.53
2022-12-08T01:19:14.101Z,100322.28
2022-12-08T01:21:41.195Z,100317.25
2022-12-08T01:24:14.831Z,100318.97
2022-12-08T01:26:42.090Z,100327.81
2022-12-08T01:29:09.962Z,100326.03
2022-12-08T01:31:37.001Z,100327.22
2022-12-08T01:34:04.553Z,100323.91
2022-12-08T01:36:33.544Z,100315.34
2022-12-08T01:39:01.716Z,100319.84
2022-12-08T01:41:31.270Z,100318.31
2022-12-08T01:44:24.287Z,100321.00
2022-12-08T01:46:53.562Z,100316.75
2022-12-08T01:49:24.673Z,100309.22
2022-12-08T01:52:06.979Z,100317.06
2022-12-08T01:54:40.617Z,100321.16
2022-12-08T01:57:36.267Z,100316.91
2022-12-08T02:00:10.506Z,100316.28
2022-12-08T02:03:02.451Z,100308.19
2022-12-08T02:05:33.155Z,100305.88
2022-12-08T02:08:04.421Z,100302.38
2022-12-08T02:10:35.741Z,100301.63
2022-12-08T02:13:04.058Z,100299.97
2022-12-08T02:15:56.798Z,100298.44
2022-12-08T02:18:32.254Z,100308.91
2022-12-08T02:21:37.859Z,100300.25
2022-12-08T02:24:16.340Z,100296.75
2022-12-08T02:27:01.969Z,100289.91
2022-12-08T02:30:05.018Z,100289.81
2022-12-08T02:32:51.392Z,100288.19
2022-12-08T02:35:27.810Z,100295.72
2022-12-08T02:38:16.423Z,100288.94
2022-12-08T02:40:57.431Z,100286.47
2022-12-08T02:43:47.130Z,100290.78
2022-12-08T02:46:22.068Z,100283.13
2022-12-08T02:48:52.309Z,100277.06
2022-12-08T02:51:19.824Z,100282.25
2022-12-08T02:53:48.014Z,100271.66
2022-12-08T02:56:17.739Z,100275.75
2022-12-08T02:59:24.962Z,100268.91
2022-12-08T03:02:18.008Z,100263.66
2022-12-08T03:05:23.638Z,100268.09
2022-12-08T03:07:55.676Z,100270.75
2022-12-08T03:10:38.287Z,100263.84
2022-12-08T03:13:12.003Z,100256.97
2022-12-08T03:15:40.352Z,100249.84
2022-12-08T03:18:11.237Z,100251.72
2022-12-08T03:20:40.470Z,100264.78
2022-12-08T03:23:11.992Z,100270.72
2022-12-08T03:25:51.332Z,100266.31
2022-12-08T03:28:18.132Z,100264.66
2022-12-08T03:30:49.808Z,100267.00
2022-12-08T03:33:23.700Z,100271.31
2022-12-08T03:35:51.698Z,100268.75
2022-12-08T03:38:18.613Z,100261.91
2022-12-08T03:41:05.991Z,100268.66
2022-12-08T03:43:32.734Z,100266.16
2022-12-08T03:45:59.804Z,100261.75
2022-12-08T03:48:26.645Z,100269.41
2022-12-08T03:50:53.803Z,100269.25
2022-12-08T03:53:20.680Z,100264.13
2022-12-08T03:55:47.686Z,100267.53
2022-12-08T03:58:14.451Z,100257.16
2022-12-08T04:00:41.448Z,100262.34
2022-12-08T04:03:08.362Z,100257.06
2022-12-08T04:05:35.430Z,100257.91
2022-12-08T04:08:02.247Z,100259.59
2022-12-08T04:10:29.391Z,100258.75
2022-12-08T04:12:57.191Z,100255.34
2022-12-08T04:15:24.452Z,100250.19
2022-12-08T04:17:51.206Z,100255.38
2022-12-08T04:20:18.524Z,100246.47
2022-12-08T04:22:45.314Z,100250.00
2022-12-08T04:25:12.650Z,100241.44
2022-12-08T04:27:39.414Z,100247.38
2022-12-08T04:30:07.464Z,100244.78
2022-12-08T04:32:34.493Z,100236.19
2022-12-08T04:35:01.513Z,100240.31
2022-12-08T04:37:28.588Z,100237.84
2022-12-08T04:39:55.598Z,100239.59
2022-12-08T04:42:22.372Z,100239.59
2022-12-08T04:44:49.361Z,100243.97
2022-12-08T04:47:16.158Z,100231.84
2022-12-08T04:49:43.482Z,100240.63
2022-12-08T04:52:10.276Z,100235.41
2022-12-08T04:54:37.376Z,100231.97
2022-12-08T04:57:04.195Z,100232.69
2022-12-08T04:59:31.388Z,100238.44
2022-12-08T05:01:58.207Z,100233.38
2022-12-08T05:04:25.377Z,100228.16
2022-12-08T05:06:52.124Z,100243.69
2022-12-08T05:09:19.162Z,100238.56
2022-12-08T05:11:49.003Z,100244.53
2022-12-08T05:14:18.654Z,100235.81
2022-12-08T05:16:46.608Z,100240.97
2022-12-08T05:19:14.319Z,100242.75
2022-12-08T05:21:41.813Z,100243.63
2022-12-08T05:24:09.378Z,100241.13
2022-12-08T05:26:36.321Z,100250.25
2022-12-08T05:29:06.368Z,100246.50
2022-12-08T05:31:33.179Z,100244.22
2022-12-08T05:34:03.164Z,100239.78
2022-12-08T05:36:30.320Z,100240.72
2022-12-08T05:38:58.486Z,100238.13
2022-12-08T05:41:25.381Z,100225.31
2022-12-08T05:43:52.500Z,100225.28
2022-12-08T05:46:19.323Z,100221.84
2022-12-08T05:48:46.414Z,100221.09
2022-12-08T05:51:19.813Z,100213.94
2022-12-08T05:53:47.038Z,100218.34
2022-12-08T05:56:13.819Z,100225.22
2022-12-08T05:58:41.382Z,100229.53
2022-12-08T06:01:17.719Z,100232.03
2022-12-08T06:03:44.764Z,100232.25
2022-12-08T06:06:11.511Z,100237.28
2022-12-08T06:08:38.543Z,100231.19
2022-12-08T06:11:05.299Z,100239.56
2022-12-08T06:13:32.396Z,100232.50
2022-12-08T06:16:08.247Z,100241.28
2022-12-08T06:18:35.400Z,100253.28
2022-12-08T06:21:10.263Z,100259.28
2022-12-08T06:23:38.095Z,100253.19
2022-12-08T06:26:10.914Z,100251.50
2022-12-08T06:28:38.213Z,100248.09
2022-12-08T06:31:15.458Z,100251.50
2022-12-08T06:33:43.026Z,100243.47
2022-12-08T06:36:11.893Z,100249.78
2022-12-08T06:38:43.086Z,100248.75
2022-12-08T06:41:10.920Z,100250.47
2022-12-08T06:43:38.330Z,100254.69
2022-12-08T06:46:07.305Z,100251.94
2022-12-08T06:48:34.584Z,100246.72
2022-12-08T06:51:09.593Z,100253.66
2022-12-08T06:53:36.945Z,100252.41
2022-12-08T06:56:07.725Z,100264.44
2022-12-08T06:58:35.763Z,100256.75
2022-12-08T07:01:20.983Z,100260.09
2022-12-08T07:03:48.146Z,100263.53
2022-12-08T07:06:25.116Z,100267.03
2022-12-08T07:08:52.216Z,100266.00
2022-12-08T07:11:22.012Z,100262.59
2022-12-08T07:13:50.355Z,100266.00
2022-12-08T07:16:17.163Z,100258.06
2022-12-08T07:18:44.346Z,100256.31
2022-12-08T07:21:13.303Z,100257.16
2022-12-08T07:23:41.160Z,100256.28
2022-12-08T07:26:11.116Z,100253.59
2022-12-08T07:28:39.509Z,100261.31
2022-12-08T07:31:07.568Z,100263.88
2022-12-08T07:33:36.149Z,100251.00
2022-12-08T07:36:05.685Z,100257.06
2022-12-08T07:38:33.019Z,100254.44
2022-12-08T07:41:00.157Z,100248.09
2022-12-08T07:43:27.342Z,100248.19
2022-12-08T07:45:54.184Z,100248.25
2022-12-08T07:48:21.315Z,100246.59
2022-12-08T07:50:48.193Z,100250.75
2022-12-08T07:53:15.381Z,100248.84
2022-12-08T07:55:43.475Z,100248.78
2022-12-08T07:58:11.414Z,100243.50
2022-12-08T08:00:38.245Z,100245.94
2022-12-08T08:03:06.268Z,100240.66
2022-12-08T08:05:33.110Z,100234.28
2022-12-08T08:08:00.317Z,100242.78
2022-12-08T08:10:27.174Z,100241.63
2022-12-08T08:12:54.288Z,100250.13
2022-12-08T08:15:21.441Z,100245.56
2022-12-08T08:17:52.214Z,100245.16
2022-12-08T08:20:20.776Z,100242.50
2022-12-08T08:22:52.077Z,100249.47
2022-12-08T08:25:20.458Z,100243.03
2022-12-08T08:27:48.212Z,100245.38
2022-12-08T08:30:20.293Z,100245.34
2022-12-08T08:32:49.097Z,100234.66
2022-12-08T08:35:16.033Z,100232.59
2022-12-08T08:37:47.272Z,100232.47
2022-12-08T08:40:16.146Z,100241.88
2022-12-08T08:42:43.190Z,100233.03
2022-12-08T08:45:11.404Z,100239.81
2022-12-08T08:47:38.476Z,100231.06
2022-12-08T08:50:06.223Z,100236.41
2022-12-08T08:52:33.587Z,100235.63
2022-12-08T08:55:00.364Z,100237.22
2022-12-08T08:57:27.447Z,100240.78
2022-12-08T08:59:54.336Z,100237.81
2022-12-08T09:02:21.996Z,100233.25
2022-12-08T09:04:49.121Z,100222.84
2022-12-08T09:07:16.523Z,100212.09
2022-12-08T09:09:43.640Z,100213.50
2022-12-08T09:12:11.787Z,100214.25
2022-12-08T09:14:38.655Z,100220.66
2022-12-08T09:17:06.921Z,100217.13
2022-12-08T09:19:33.749Z,100229.13
2022-12-08T09:22:00.839Z,100209.91
2022-12-08T09:24:27.566Z,100196.31
2022-12-08T09:26:54.623Z,100193.13
2022-12-08T09:29:21.390Z,100199.13
2022-12-08T09:31:48.505Z,100202.81
2022-12-08T09:34:15.309Z,100207.13
2022-12-08T09:36:42.387Z,100213.69
2022-12-08T09:39:09.314Z,100215.44
2022-12-08T09:41:51.873Z,100203.81
2022-12-08T09:44:57.284Z,100200.59
2022-12-08T09:47:35.269Z,100196.19
2022-12-08T09:50:27.503Z,100184.41
2022-12-08T09:53:13.578Z,100181.59
2022-12-08T09:55:59.123Z,100168.94
2022-12-08T09:59:00.229Z,100159.50
2022-12-08T10:01:31.267Z,100160.94
2022-12-08T10:03:59.171Z,100164.19
2022-12-08T10:06:45.361Z,100159.63
2022-12-08T10:09:23.261Z,100165.94
2022-12-08T10:12:39.946Z,100166.47
2022-12-08T10:15:09.928Z,100165.41
2022-12-08T10:17:42.520Z,100175.84
2022-12-08T10:20:20.395Z,100173.69
2022-12-08T10:22:53.264Z,100171.69
2022-12-08T10:25:33.216Z,100176.50
2022-12-08T10:28:00.351Z,100174.84
2022-12-08T10:30:27.573Z,100154.50
2022-12-08T10:32:55.064Z,100162.19
2022-12-08T10:35:23.364Z,100153.94
2022-12-08T10:38:01.452Z,100149.84
2022-12-08T10:40:37.995Z,100137.50
2022-12-08T10:43:17.583Z,100125.78
2022-12-08T10:45:45.045Z,100127.34
2022-12-08T10:48:19.325Z,100120.56
2022-12-08T10:50:54.252Z,100117.72
2022-12-08T10:53:30.298Z,100119.81
2022-12-08T10:56:03.428Z,100108.75
2022-12-08T10:58:36.665Z,100109.25
2022-12-08T11:01:17.878Z,100107.25
2022-12-08T11:03:48.974Z,100107.16
2022-12-08T11:06:18.396Z,100092.63
2022-12-08T11:08:58.830Z,100093.03
2022-12-08T11:11:47.593Z,100093.97
2022-12-08T11:14:26.179Z,100081.88
2022-12-08T11:17:05.574Z,100081.03
2022-12-08T11:19:37.848Z,100074.16
2022-12-08T11:22:41.818Z,100071.78
2022-12-08T11:25:08.508Z,100067.41
2022-12-08T11:27:37.603Z,100062.00
2022-12-08T11:30:14.586Z,100061.00
2022-12-08T11:32:44.911Z,100053.16
2022-12-08T11:35:21.323Z,100046.78
2022-12-08T11:37:48.896Z,100042.63
2022-12-08T11:40:43.390Z,100032.19
2022-12-08T11:43:26.461Z,100035.66
2022-12-08T11:46:00.072Z,100008.78
2022-12-08T11:48:35.675Z,100007.09
2022-12-08T11:51:16.437Z,99985.50
2022-12-08T11:53:49.568Z,99989.63
2022-12-08T11:56:33.175Z,99998.56
2022-12-08T11:59:13.517Z,100002.13
2022-12-08T12:01:42.736Z,99996.72
2022-12-08T12:04:28.083Z,99992.19
2022-12-08T12:07:09.863Z,99996.84
2022-12-08T12:09:48.977Z,99999.44
2022-12-08T12:12:44.119Z,99996.31
2022-12-08T12:15:36.722Z,99998.59
2022-12-08T12:18:25.091Z,99998.72
2022-12-08T12:21:00.710Z,100003.25
2022-12-08T12:23:43.986Z,99999.75
2022-12-08T12:26:20.170Z,99994.78
2022-12-08T12:28:55.906Z,100001.69
2022-12-08T12:31:30.290Z,100005.31
2022-12-08T12:34:21.563Z,100003.41
2022-12-08T12:37:03.502Z,100007.09
2022-12-08T12:39:34.088Z,100007.16
2022-12-08T12:42:03.809Z,100007.22
2022-12-08T12:44:33.566Z,100009.91
2022-12-08T12:47:02.735Z,100002.78
2022-12-08T12:50:05.978Z,100002.13
2022-12-08T12:52:33.148Z,99991.88
2022-12-08T12:54:59.811Z,99999.66
2022-12-08T12:57:37.484Z,99998.72
2022-12-08T13:00:04.560Z,99987.25
2022-12-08T13:02:49.172Z,99973.78
2022-12-08T13:05:35.873Z,99981.53
2022-12-08T13:08:07.851Z,99985.91
2022-12-08T13:10:38.049Z,99977.22
2022-12-08T13:13:12.240Z,99981.53
2022-12-08T13:15:40.383Z,99991.13
2022-12-08T13:18:18.581Z,99982.59
2022-12-08T13:20:55.178Z,99973.84
2022-12-08T13:23:37.217Z,99972.94
2022-12-08T13:26:20.813Z,99974.50
2022-12-08T13:29:01.242Z,99973.72
2022-12-08T13:31:37.784Z,99964.00
2022-12-08T13:34:06.581Z,99968.41
2022-12-08T13:36:38.925Z,99971.31
2022-12-08T13:39:07.481Z,99970.91
2022-12-08T13:41:48.037Z,99974.88
2022-12-08T13:47:34.022Z,99987.97
2022-12-08T13:54:35.391Z,99978.75
2022-12-08T13:59:25.268Z,99975.47
2022-12-08T14:01:52.240Z,99973.00
2022-12-08T14:04:47.893Z,99971.34
2022-12-08T14:07:11.958Z,99973.00
2022-12-08T14:09:40.220Z,99974.06
2022-12-08T14:12:27.275Z,99963.81
2022-12-08T14:15:04.366Z,99966.34
2022-12-08T14:17:32.978Z,99961.03
2022-12-08T14:20:02.547Z,99969.81
2022-12-08T14:22:36.200Z,99973.16
2022-12-08T14:25:04.731Z,99974.84
2022-12-08T14:27:36.243Z,99964.47
2022-12-08T14:30:44.686Z,99961.81
2022-12-08T14:33:15.500Z,99976.16
2022-12-08T14:35:42.404Z,99975.09
2022-12-08T14:38:15.219Z,99979.47
2022-12-08T14:40:44.499Z,99978.78
2022-12-08T14:43:19.398Z,99976.16
2022-12-08T14:45:47.731Z,99977.00
2022-12-08T14:48:22.177Z,99981.28
2022-12-08T14:51:04.074Z,99981.28
2022-12-08T14:53:39.961Z,99980.50
2022-12-08T14:56:20.242Z,99973.56
2022-12-08T14:58:50.195Z,99971.78
2022-12-08T15:01:23.401Z,99972.00
2022-12-08T15:03:51.643Z,99975.53
2022-12-08T15:06:22.141Z,99971.22
2022-12-08T15:08:56.121Z,99963.31
2022-12-08T15:11:22.857Z,99967.91
2022-12-08T15:14:27.048Z,99956.56
2022-12-08T15:16:55.320Z,99961.03
2022-12-08T15:19:24.498Z,99956.75
2022-12-08T15:21:51.313Z,99949.97
2022-12-08T15:24:22.793Z,99959.69
2022-12-08T15:26:51.467Z,99953.50
2022-12-08T15:29:24.743Z,99954.41
2022-12-08T15:31:53.343Z,99952.72
2022-12-08T15:34:20.866Z,99950.91
2022-12-08T15:36:50.049Z,99958.84
2022-12-08T15:39:31.985Z,99957.94
2022-12-08T15:41:59.885Z,99948.53
2022-12-08T15:44:27.343Z,99943.31
2022-12-08T15:46:54.431Z,99939.84
2022-12-08T15:49:23.859Z,99932.09
2022-12-08T15:51:56.516Z,99921.56
2022-12-08T15:54:27.781Z,99920.41
2022-12-08T15:59:45.661Z,99939.00
2022-12-08T16:02:19.285Z,99937.31
2022-12-08T16:05:33.243Z,99936.22
2022-12-08T16:07:38.176Z,99930.25
2022-12-08T16:10:07.759Z,99929.41
2022-12-08T16:15:59.033Z,99943.13
2022-12-08T16:18:29.965Z,99940.69
2022-12-08T16:21:35.501Z,99934.63
2022-12-08T16:23:45.502Z,99934.75
2022-12-08T16:27:00.956Z,99944.19
2022-12-08T16:29:07.179Z,99945.81
2022-12-08T16:31:34.330Z,99930.25
2022-12-08T16:34:01.156Z,99937.44
2022-12-08T16:36:28.223Z,99937.47
2022-12-08T16:38:55.173Z,99934.00
2022-12-08T16:41:40.822Z,99928.13
2022-12-08T16:44:07.670Z,99924.69
2022-12-08T16:46:36.051Z,99922.00
2022-12-08T16:49:04.749Z,99920.72
2022-12-08T16:51:31.803Z,99913.50
2022-12-08T16:53:58.708Z,99914.72
2022-12-08T16:56:32.657Z,99923.31
2022-12-08T16:59:01.371Z,99931.88
2022-12-08T17:01:28.486Z,99939.09
2022-12-08T17:04:29.916Z,99935.66
2022-12-08T17:06:45.602Z,99937.53
2022-12-08T17:09:12.513Z,99942.69
2022-12-08T17:11:43.240Z,99935.72
2022-12-08T17:14:11.510Z,99934.72
2022-12-08T17:16:39.135Z,99926.69
2022-12-08T17:19:06.011Z,99932.31
2022-12-08T17:21:33.148Z,99928.97
2022-12-08T17:23:59.873Z,99927.19
2022-12-08T17:26:26.916Z,99931.41
2022-12-08T17:29:01.553Z,99929.78
2022-12-08T17:31:31.449Z,99937.53
2022-12-08T17:34:00.995Z,99934.16
2022-12-08T17:36:28.134Z,99934.94
2022-12-08T17:38:55.370Z,99932.78
2022-12-08T17:41:22.557Z,99954.09
2022-12-08T17:43:49.312Z,99936.75
2022-12-08T17:46:20.696Z,99921.38
2022-12-08T17:48:47.671Z,99925.91
2022-12-08T17:51:15.309Z,99921.00
2022-12-08T17:53:42.146Z,99912.94
2022-12-08T17:56:27.059Z,99912.16
2022-12-08T17:58:54.999Z,99911.13
2022-12-08T18:01:23.987Z,99919.91
2022-12-08T18:03:51.367Z,99926.06
2022-12-08T18:06:18.529Z,99919.06
2022-12-08T18:08:45.500Z,99920.88
2022-12-08T18:11:16.170Z,99927.16
2022-12-08T18:13:43.601Z,99920.41
2022-12-08T18:16:10.742Z,99917.94
2022-12-08T18:18:37.500Z,99907.66
2022-12-08T18:21:04.595Z,99907.72
2022-12-08T18:23:34.435Z,99908.44
2022-12-08T18:26:04.892Z,99914.41
2022-12-08T18:28:32.062Z,99903.25
2022-12-08T18:30:59.240Z,99908.72
2022-12-08T18:33:26.696Z,99898.09
2022-12-08T18:35:55.974Z,99907.56
2022-12-08T18:38:22.725Z,99899.75
2022-12-08T18:40:49.788Z,99909.34
2022-12-08T18:43:16.514Z,99914.56
2022-12-08T18:45:43.921Z,99919.06
2022-12-08T18:48:10.714Z,99919.84
2022-12-08T18:50:43.095Z,99918.88
2022-12-08T18:53:09.935Z,99922.59
2022-12-08T18:55:37.665Z,99919.00
2022-12-08T18:58:04.411Z,99916.53
2022-12-08T19:00:31.775Z,99922.38
2022-12-08T19:02:58.545Z,99921.56
2022-12-08T19:05:25.675Z,99906.97
2022-12-08T19:07:52.819Z,99908.59
2022-12-08T19:10:19.926Z,99912.81
2022-12-08T19:12:50.624Z,99917.16
2022-12-08T19:15:17.867Z,99917.81
2022-12-08T19:17:44.665Z,99916.41
2022-12-08T19:20:12.263Z,99912.03
2022-12-08T19:22:39.059Z,99907.72
2022-12-08T19:25:06.438Z,99915.50
2022-12-08T19:27:34.204Z,99923.22
2022-12-08T19:30:01.287Z,99914.81
2022-12-08T19:32:29.956Z,99921.47
2022-12-08T19:34:57.203Z,99921.38
2022-12-08T19:37:23.941Z,99929.44
2022-12-08T19:40:10.016Z,99925.84
2022-12-08T19:42:55.407Z,99917.16
2022-12-08T19:45:22.597Z,99910.41
2022-12-08T19:47:49.504Z,99923.53
2022-12-08T19:50:35.394Z,99910.34
2022-12-08T19:53:10.671Z,99910.13
2022-12-08T19:55:38.435Z,99911.88
2022-12-08T19:58:06.209Z,99908.13
2022-12-08T20:00:34.603Z,99909.19
2022-12-08T20:03:02.466Z,99905.00
2022-12-08T20:05:30.810Z,99900.88
2022-12-08T20:07:57.707Z,99900.69
2022-12-08T20:10:35.563Z,99899.13
2022-12-08T20:13:21.814Z,99899.34
2022-12-08T20:15:49.466Z,99905.56
2022-12-08T20:18:16.788Z,99903.94
2022-12-08T20:20:47.273Z,99901.41
2022-12-08T20:23:15.611Z,99889.25
2022-12-08T20:25:44.811Z,99884.03
2022-12-08T20:28:11.891Z,99886.13
2022-12-08T20:30:40.170Z,99883.38
2022-12-08T20:33:07.146Z,99874.75
2022-12-08T20:35:34.276Z,99875.84
2022-12-08T20:38:01.123Z,99877.81
2022-12-08T20:40:28.168Z,99880.38
2022-12-08T20:42:54.999Z,99889.66
2022-12-08T20:45:22.023Z,99890.50
2022-12-08T20:47:49.098Z,99900.19
2022-12-08T20:50:16.321Z,99896.69
2022-12-08T20:52:43.348Z,99893.09
2022-12-08T20:55:13.101Z,99904.25
2022-12-08T20:57:40.137Z,99908.81
2022-12-08T21:00:08.395Z,99909.44
2022-12-08T21:02:35.509Z,99910.38
2022-12-08T21:05:04.131Z,99916.34
2022-12-08T21:07:31.121Z,99917.19
2022-12-08T21:09:58.299Z,99910.56
2022-12-08T21:12:25.338Z,99918.19
2022-12-08T21:14:52.802Z,99916.50
2022-12-08T21:17:19.678Z,99918.31
2022-12-08T21:19:47.078Z,99911.34
2022-12-08T21:22:14.319Z,99919.00
2022-12-08T21:24:41.539Z,99914.59
2022-12-08T21:27:08.716Z,99921.34
2022-12-08T21:29:35.859Z,99932.09
2022-12-08T21:32:02.912Z,99921.22
2022-12-08T21:34:31.852Z,99904.16
2022-12-08T21:36:58.851Z,99906.00
2022-12-08T21:39:26.218Z,99902.56
2022-12-08T21:42:12.759Z,99886.78
2022-12-08T21:44:40.475Z,99883.59
2022-12-08T21:47:07.496Z,99877.41
2022-12-08T21:49:34.775Z,99868.59
2022-12-08T21:52:01.935Z,99871.47
2022-12-08T21:54:29.060Z,99882.22
2022-12-08T21:56:55.862Z,99878.75
2022-12-08T21:59:29.061Z,99872.00
2022-12-08T22:01:55.968Z,99881.72
2022-12-08T22:04:25.184Z,99883.31
2022-12-08T22:06:52.411Z,99896.44
2022-12-08T22:09:19.599Z,99888.13
2022-12-08T22:11:46.931Z,99890.50
2022-12-08T22:14:15.083Z,99888.25
2022-12-08T22:16:43.301Z,99896.00
2022-12-08T22:19:11.018Z,99893.22
2022-12-08T22:21:38.215Z,99883.69
2022-12-08T22:24:05.843Z,99882.00
2022-12-08T22:26:32.656Z,99879.50
2022-12-08T22:29:00.552Z,99888.19
2022-12-08T22:31:28.078Z,99893.28
2022-12-08T22:33:55.779Z,99909.09
2022-12-08T22:36:24.724Z,99903.75
2022-12-08T22:38:52.904Z,99903.03
2022-12-08T22:41:20.544Z,99900.44
2022-12-08T22:43:48.695Z,99899.72
2022-12-08T22:46:22.087Z,99899.88
2022-12-08T22:48:49.840Z,99888.69
2022-12-08T22:51:17.541Z,99885.84
2022-12-08T22:53:45.227Z,99895.03
2022-12-08T22:56:13.689Z,99899.09
2022-12-08T22:58:44.444Z,99896.69
2022-12-08T23:01:26.743Z,99882.81
2022-12-08T23:03:54.140Z,99889.53
2022-12-08T23:06:21.264Z,99894.13
2022-12-08T23:08:48.753Z,99900.59
2022-12-08T23:11:16.213Z,99887.56
2022-12-08T23:13:43.838Z,99890.91
2022-12-08T23:16:11.860Z,99886.78
2022-12-08T23:18:43.209Z,99892.91
2022-12-08T23:21:12.617Z,99890.22
2022-12-08T23:23:39.737Z,99885.56
2022-12-08T23:26:15.942Z,99887.16
2022-12-08T23:28:43.283Z,99877.25
2022-12-08T23:31:10.380Z,99872.03
2022-12-08T23:33:37.508Z,99871.25
2022-12-08T23:36:04.505Z,99868.91
2022-12-08T23:38:31.668Z,99883.53
2022-12-08T23:41:03.041Z,99883.38
2022-12-08T23:43:30.132Z,99895.16
2022-12-08T23:45:57.063Z,99893.44
2022-12-08T23:48:24.478Z,99883.25
2022-12-08T23:50:52.399Z,99873.06
2022-12-08T23:53:19.506Z,99865.97
2022-12-08T23:55:46.443Z,99868.69
2022-12-08T23:58:13.614Z,99875.94
